Time;durP1;ratioP1;P1;durP2;ratioP2;P2;SDS_P1;SDS_P2;PMS_P1;PMS_P2;Temp;Humidity;BMP_temperature;BMP_pressure;BME280_temperature;BME280_humidity;BME280_pressure;Samples;Min_cycle;Max_cycle;Signal;HPM_P1;HPM_P2
2023/01/16 00:00:25;;;;;;;28.10;15.40;;;;;;;2.81;82.19;100894.94;107583;1254;108219;-57
2023/01/16 00:03:13;;;;;;;30.60;16.00;;;;;;;2.79;82.28;100887.79;107551;1254;97860;-60
2023/01/16 00:05:42;;;;;;;28.20;15.60;;;;;;;2.77;82.06;100890.04;107576;1253;98377;-60
2023/01/16 00:08:11;;;;;;;26.90;15.50;;;;;;;2.75;82.07;100895.49;107677;1254;111452;-60
2023/01/16 00:10:39;;;;;;;29.30;14.80;;;;;;;2.71;82.05;100896.73;107532;1254;109224;-61
2023/01/16 00:13:11;;;;;;;28.20;15.60;;;;;;;2.68;82.06;100894.26;107657;1254;108961;-60
2023/01/16 00:15:47;;;;;;;28.30;16.50;;;;;;;2.65;82.30;100891.77;107583;1254;97825;-59
2023/01/16 00:18:16;;;;;;;26.90;15.20;;;;;;;2.61;82.35;100888.94;107585;1254;97985;-60
2023/01/16 00:20:47;;;;;;;26.20;14.60;;;;;;;2.59;82.21;100888.00;107598;1254;111890;-60
2023/01/16 00:23:15;;;;;;;28.20;15.40;;;;;;;2.56;82.19;100898.41;107621;1252;110200;-59
2023/01/16 00:25:44;;;;;;;26.50;16.50;;;;;;;2.52;82.16;100895.61;107570;1254;107927;-60
2023/01/16 00:28:14;;;;;;;29.40;15.40;;;;;;;2.50;82.33;100897.12;107627;1256;97831;-61
2023/01/16 00:30:42;;;;;;;27.30;16.10;;;;;;;2.52;82.45;100895.98;107665;1256;98370;-61
2023/01/16 00:33:11;;;;;;;32.00;16.80;;;;;;;2.55;82.71;100897.40;107624;1254;112448;-61
2023/01/16 00:35:39;;;;;;;28.00;15.20;;;;;;;2.59;82.52;100896.85;107507;1254;108408;-60
2023/01/16 00:38:07;;;;;;;31.70;16.40;;;;;;;2.59;82.40;100884.30;107641;1254;109715;-59
2023/01/16 00:40:36;;;;;;;32.00;16.90;;;;;;;2.58;81.95;100886.64;107621;1254;97851;-60
2023/01/16 00:43:04;;;;;;;28.80;16.50;;;;;;;2.53;81.99;100884.22;107639;1257;97912;-61
2023/01/16 00:45:33;;;;;;;26.20;15.60;;;;;;;2.49;81.99;100880.90;107579;1254;111442;-59
2023/01/16 00:48:02;;;;;;;30.00;15.80;;;;;;;2.46;82.06;100874.69;107599;1255;109991;-60
2023/01/16 00:50:30;;;;;;;30.90;16.60;;;;;;;2.44;82.40;100871.10;107591;1254;108243;-59
2023/01/16 00:52:59;;;;;;;31.30;17.30;;;;;;;2.41;82.45;100871.08;107624;1253;97822;-59
2023/01/16 00:55:27;;;;;;;27.40;15.50;;;;;;;2.40;82.37;100872.91;107609;1252;98550;-58
2023/01/16 00:57:55;;;;;;;29.40;15.70;;;;;;;2.41;82.40;100865.58;107568;1254;111546;-63
2023/01/16 01:00:25;;;;;;;29.40;16.30;;;;;;;2.44;82.70;100865.04;107675;1254;110382;-60
2023/01/16 01:02:53;;;;;;;27.80;15.80;;;;;;;2.47;82.41;100866.10;107565;1253;108285;-60
2023/01/16 01:05:22;;;;;;;28.10;15.10;;;;;;;2.49;82.28;100862.30;107607;1254;97682;-60
2023/01/16 01:07:50;;;;;;;29.70;15.50;;;;;;;2.50;82.42;100857.48;107567;1255;97831;-60
2023/01/16 01:10:19;;;;;;;34.50;17.60;;;;;;;2.50;82.16;100861.36;107680;1254;112178;-59
2023/01/16 01:12:47;;;;;;;30.60;16.60;;;;;;;2.50;82.44;100861.73;107555;1255;110110;-59
2023/01/16 01:15:16;;;;;;;28.60;16.10;;;;;;;2.52;82.65;100860.25;107523;1254;107800;-62
2023/01/16 01:17:44;;;;;;;25.40;14.70;;;;;;;2.59;83.06;100860.02;107562;1256;97830;-59
2023/01/16 01:20:12;;;;;;;29.10;16.00;;;;;;;2.69;83.06;100858.43;107534;1254;97739;-60
2023/01/16 01:22:41;;;;;;;27.40;16.50;;;;;;;2.74;82.93;100850.34;107610;1254;112104;-60
2023/01/16 01:25:09;;;;;;;32.00;17.10;;;;;;;2.78;82.52;100850.66;107613;1254;108952;-61
2023/01/16 01:27:37;;;;;;;30.60;16.60;;;;;;;2.81;82.51;100843.60;107560;1256;108294;-58
2023/01/16 01:30:07;;;;;;;32.70;18.20;;;;;;;2.82;82.26;100845.65;107547;1256;97847;-59
2023/01/16 01:32:37;;;;;;;33.10;18.10;;;;;;;2.81;81.77;100841.79;107657;1254;98363;-60
2023/01/16 01:35:06;;;;;;;37.40;19.20;;;;;;;2.76;80.98;100836.25;107591;1253;111917;-61
2023/01/16 01:37:35;;;;;;;29.60;16.70;;;;;;;2.71;81.08;100827.30;107574;1254;110062;-58
2023/01/16 01:40:05;;;;;;;31.70;17.00;;;;;;;2.67;80.82;100826.66;107691;1254;108389;-61
2023/01/16 01:42:46;;;;;;;32.60;17.30;;;;;;;2.62;81.05;100822.13;107626;1256;97839;-61
2023/01/16 01:45:17;;;;;;;34.20;19.40;;;;;;;2.59;81.15;100821.75;107688;1255;98356;-60
2023/01/16 01:48:11;;;;;;;39.70;21.00;;;;;;;2.57;81.39;100817.61;107602;1254;110950;-59
2023/01/16 01:50:57;;;;;;;39.10;21.00;;;;;;;2.56;81.56;100814.30;107623;1255;109325;-59
2023/01/16 01:53:42;;;;;;;41.50;22.20;;;;;;;2.56;81.79;100815.37;107635;1257;108939;-60
2023/01/16 01:56:22;;;;;;;46.00;23.20;;;;;;;2.56;81.83;100817.14;107570;1254;97847;-59
2023/01/16 01:58:56;;;;;;;37.10;21.00;;;;;;;2.57;81.89;100815.52;107712;1256;98341;-58
2023/01/16 02:01:26;;;;;;;39.20;19.80;;;;;;;2.59;81.96;100811.69;107618;1254;112398;-59
2023/01/16 02:04:02;;;;;;;32.70;17.50;;;;;;;2.62;82.15;100809.24;107636;1254;109713;-59
2023/01/16 02:06:50;;;;;;;33.00;17.60;;;;;;;2.64;81.88;100810.71;107563;1255;107659;-59
2023/01/16 02:09:21;;;;;;;32.90;17.00;;;;;;;2.66;81.97;100815.88;107597;1254;97826;-59
2023/01/16 02:12:13;;;;;;;29.50;16.00;;;;;;;2.66;81.73;100817.47;107585;1254;97868;-60
2023/01/16 02:14:45;;;;;;;28.50;16.30;;;;;;;2.68;81.82;100814.04;107638;1255;111887;-60
2023/01/16 02:20:23;;;;;;;29.80;15.40;;;;;;;2.72;81.83;100817.52;107603;1256;108314;-60
2023/01/16 02:23:07;;;;;;;28.30;14.90;;;;;;;2.75;81.69;100817.73;107542;1254;97816;-59
2023/01/16 02:26:09;;;;;;;28.70;14.70;;;;;;;2.78;81.66;100817.90;107605;1254;97864;-60
2023/01/16 02:29:05;;;;;;;29.90;16.50;;;;;;;2.79;80.88;100815.35;107479;1258;111762;-58
2023/01/16 02:31:53;;;;;;;29.70;16.50;;;;;;;2.78;80.49;100818.77;107533;1254;110755;-59
2023/01/16 02:34:45;;;;;;;29.20;15.60;;;;;;;2.76;80.43;100818.38;107608;1253;109537;-59
2023/01/16 02:37:26;;;;;;;24.70;14.50;;;;;;;2.73;80.51;100818.52;107557;1256;97835;-60
2023/01/16 02:40:34;;;;;;;29.60;15.70;;;;;;;2.75;80.53;100821.48;107674;1254;97736;-59
2023/01/16 02:43:18;;;;;;;27.00;14.30;;;;;;;2.75;80.28;100822.69;107475;1254;111789;-64
2023/01/16 02:46:08;;;;;;;28.20;15.50;;;;;;;2.73;80.20;100816.41;107482;1255;109336;-61
2023/01/16 02:48:55;;;;;;;28.50;16.50;;;;;;;2.72;80.02;100816.14;107507;1254;108558;-59
2023/01/16 02:51:36;;;;;;;26.30;14.90;;;;;;;2.72;80.41;100812.56;107572;1256;97822;-60
2023/01/16 02:54:38;;;;;;;28.90;15.60;;;;;;;2.72;80.41;100815.04;107664;1256;97714;-60
2023/01/16 02:57:14;;;;;;;29.80;15.40;;;;;;;2.75;80.48;100812.39;107624;1254;112093;-60
2023/01/16 02:59:42;;;;;;;33.10;18.50;;;;;;;2.77;80.45;100807.88;107651;1256;110128;-58
2023/01/16 03:02:11;;;;;;;55.20;26.50;;;;;;;2.79;80.83;100807.94;107649;1254;108216;-59
2023/01/16 03:04:47;;;;;;;59.50;28.30;;;;;;;2.82;80.92;100806.02;107658;1254;97813;-59
2023/01/16 03:07:34;;;;;;;44.90;22.40;;;;;;;2.85;80.58;100801.74;107619;1254;98360;-60
2023/01/16 03:10:11;;;;;;;31.40;16.90;;;;;;;2.87;80.31;100797.59;107662;1256;112365;-58
2023/01/16 03:12:58;;;;;;;30.80;18.00;;;;;;;2.87;80.31;100793.31;107650;1254;109948;-58
2023/01/16 03:15:52;;;;;;;24.00;15.10;;;;;;;2.90;80.28;100791.38;107588;1256;107667;-59
2023/01/16 03:18:33;;;;;;;29.90;17.10;;;;;;;2.87;79.73;100788.00;107599;1256;97815;-59
2023/01/16 03:21:27;;;;;;;31.30;17.50;;;;;;;2.84;79.88;100784.62;107635;1253;98379;-59
2023/01/16 03:24:18;;;;;;;29.40;16.30;;;;;;;2.83;79.99;100781.48;107625;1253;112160;-58
2023/01/16 03:26:51;;;;;;;33.40;17.30;;;;;;;2.81;79.36;100782.15;107615;1254;110975;-59
2023/01/16 03:29:39;;;;;;;31.20;17.10;;;;;;;2.76;79.37;100775.48;107625;1254;107810;-59
2023/01/16 03:32:17;;;;;;;29.50;16.20;;;;;;;2.72;79.38;100769.34;107587;1254;97842;-59
2023/01/16 03:34:53;;;;;;;33.00;17.00;;;;;;;2.69;79.17;100766.69;107523;1254;98456;-60
2023/01/16 03:37:31;;;;;;;31.40;17.80;;;;;;;2.67;79.39;100766.46;107540;1254;112016;-58
2023/01/16 03:40:03;;;;;;;32.10;17.40;;;;;;;2.63;79.52;100770.89;107577;1254;109717;-58
2023/01/16 03:42:41;;;;;;;33.80;17.60;;;;;;;2.61;79.58;100771.88;107541;1254;108338;-60
2023/01/16 03:45:23;;;;;;;31.00;18.30;;;;;;;2.62;79.54;100772.78;107647;1254;97843;-58
2023/01/16 03:48:02;;;;;;;32.20;17.20;;;;;;;2.61;79.76;100775.82;107606;1253;97704;-59
2023/01/16 03:50:32;;;;;;;35.40;18.50;;;;;;;2.60;80.02;100779.93;107688;1254;111324;-59
2023/01/16 03:53:07;;;;;;;27.80;16.00;;;;;;;2.60;80.22;100779.92;107649;1256;109217;-58
2023/01/16 03:55:44;;;;;;;28.60;17.00;;;;;;;2.61;80.15;100773.13;107583;1254;108434;-61
2023/01/16 03:58:34;;;;;;;33.50;17.50;;;;;;;2.62;80.23;100774.52;107609;1256;97822;-59
2023/01/16 04:01:21;;;;;;;30.50;16.20;;;;;;;2.63;80.09;100774.99;107628;1254;97851;-60
2023/01/16 04:03:56;;;;;;;29.30;16.30;;;;;;;2.64;80.13;100774.77;107492;1254;111537;-60
2023/01/16 04:06:36;;;;;;;29.20;15.10;;;;;;;2.66;80.20;100767.73;107492;1257;110100;-59
2023/01/16 04:09:12;;;;;;;28.70;16.60;;;;;;;2.68;80.23;100765.66;107579;1253;107144;-61
2023/01/16 04:11:42;;;;;;;27.20;15.80;;;;;;;2.70;80.06;100765.40;107515;1257;97858;-60
2023/01/16 04:14:13;;;;;;;27.00;16.30;;;;;;;2.68;79.74;100764.23;107667;1254;98386;-59
2023/01/16 04:16:42;;;;;;;26.40;15.40;;;;;;;2.65;79.58;100766.01;107658;1251;112265;-59
2023/01/16 04:19:15;;;;;;;27.50;15.40;;;;;;;2.63;79.69;100768.27;107617;1254;109692;-60
2023/01/16 04:21:45;;;;;;;32.30;17.00;;;;;;;2.61;79.63;100767.30;107575;1254;107928;-60
2023/01/16 04:24:15;;;;;;;35.90;16.00;;;;;;;2.60;79.68;100763.98;107643;1254;97899;-59
2023/01/16 04:26:43;;;;;;;33.00;17.90;;;;;;;2.59;79.56;100762.27;107691;1256;98370;-59
2023/01/16 04:29:12;;;;;;;30.20;16.80;;;;;;;2.61;79.98;100764.66;107590;1254;112882;-60
2023/01/16 04:31:41;;;;;;;32.20;16.60;;;;;;;2.63;79.86;100767.02;107606;1254;110417;-59
2023/01/16 04:34:09;;;;;;;28.80;15.70;;;;;;;2.62;79.66;100756.23;107383;1254;107615;-59
2023/01/16 04:36:37;;;;;;;28.90;16.40;;;;;;;2.59;79.53;100750.92;107545;1254;97867;-59
2023/01/16 04:39:06;;;;;;;35.20;16.80;;;;;;;2.55;79.37;100753.47;107530;1256;97941;-59
2023/01/16 04:41:38;;;;;;;27.60;14.80;;;;;;;2.49;79.39;100756.95;107555;1254;112421;-60
2023/01/16 04:44:09;;;;;;;28.30;16.40;;;;;;;2.44;79.33;100760.98;107539;1254;109732;-60
2023/01/16 04:46:38;;;;;;;31.30;17.40;;;;;;;2.41;79.81;100760.29;107396;1254;108316;-64
2023/01/16 04:49:07;;;;;;;34.60;17.80;;;;;;;2.37;79.55;100759.20;107456;1254;97843;-64
2023/01/16 04:51:36;;;;;;;30.20;16.20;;;;;;;2.33;79.36;100762.83;107551;1257;98383;-59
2023/01/16 04:54:06;;;;;;;31.20;16.40;;;;;;;2.27;79.38;100757.45;107520;1253;112320;-58
2023/01/16 04:56:35;;;;;;;31.50;17.30;;;;;;;2.22;79.71;100759.13;107609;1254;109861;-58
2023/01/16 04:59:04;;;;;;;26.00;16.40;;;;;;;2.19;79.76;100755.95;107434;1254;108351;-60
2023/01/16 05:01:34;;;;;;;35.80;19.60;;;;;;;2.17;79.80;100753.56;107413;1254;97911;-60
2023/01/16 05:04:04;;;;;;;32.00;18.40;;;;;;;2.16;79.67;100752.40;107551;1254;97730;-61
2023/01/16 05:06:33;;;;;;;28.80;16.60;;;;;;;2.13;79.64;100756.22;107586;1254;111494;-59
2023/01/16 05:09:03;;;;;;;33.90;17.90;;;;;;;2.12;79.94;100757.05;107433;1254;109781;-60
2023/01/16 05:11:33;;;;;;;34.40;18.70;;;;;;;2.09;79.81;100751.89;107472;1254;106937;-59
2023/01/16 05:14:01;;;;;;;40.00;21.60;;;;;;;2.04;79.87;100748.76;107450;1254;97826;-59
2023/01/16 05:16:29;;;;;;;36.00;18.80;;;;;;;2.00;80.11;100750.73;107609;1254;98369;-60
2023/01/16 05:18:58;;;;;;;41.90;21.00;;;;;;;1.96;80.18;100743.16;107524;1254;111422;-59
2023/01/16 05:21:27;;;;;;;47.40;20.30;;;;;;;1.91;80.10;100739.73;107469;1254;109784;-59
2023/01/16 05:23:55;;;;;;;41.50;20.20;;;;;;;1.86;79.88;100736.25;107409;1254;109727;-58
2023/01/16 05:26:24;;;;;;;48.20;22.30;;;;;;;1.84;79.68;100730.50;107414;1253;97956;-60
2023/01/16 05:28:53;;;;;;;39.00;20.10;;;;;;;1.83;80.07;100732.90;107444;1257;97735;-60
2023/01/16 05:31:21;;;;;;;45.70;21.00;;;;;;;1.82;80.19;100728.70;107454;1254;112321;-62
2023/01/16 05:33:50;;;;;;;42.30;21.60;;;;;;;1.83;80.57;100724.61;107487;1252;110031;-63
2023/01/16 05:36:19;;;;;;;36.20;21.30;;;;;;;1.83;80.52;100720.69;107565;1254;107359;-59
2023/01/16 05:38:48;;;;;;;39.50;22.30;;;;;;;1.83;80.68;100718.39;107644;1254;97880;-60
2023/01/16 05:41:16;;;;;;;44.50;22.90;;;;;;;1.83;80.69;100712.75;107659;1254;97704;-58
2023/01/16 05:43:44;;;;;;;39.30;21.80;;;;;;;1.83;80.89;100712.36;107572;1253;111809;-59
2023/01/16 05:46:13;;;;;;;47.10;24.50;;;;;;;1.82;80.83;100712.64;107628;1256;110311;-59
2023/01/16 05:48:41;;;;;;;48.80;24.70;;;;;;;1.82;81.16;100710.48;107650;1253;108212;-58
2023/01/16 05:51:11;;;;;;;53.20;25.20;;;;;;;1.84;81.47;100712.85;107588;1254;99258;-59
2023/01/16 05:53:39;;;;;;;43.90;23.40;;;;;;;1.87;81.27;100712.34;107520;1253;98373;-59
2023/01/16 05:56:09;;;;;;;48.20;24.60;;;;;;;1.89;81.55;100703.04;107571;1254;112236;-59
2023/01/16 05:58:38;;;;;;;39.80;19.90;;;;;;;1.83;81.17;100704.59;107563;1254;110065;-60
2023/01/16 06:01:06;;;;;;;38.10;19.70;;;;;;;1.77;81.09;100705.64;107571;1254;108236;-59
2023/01/16 06:03:35;;;;;;;38.00;20.60;;;;;;;1.72;81.32;100703.75;107528;1254;97883;-59
2023/01/16 06:06:03;;;;;;;32.70;19.40;;;;;;;1.68;81.27;100706.60;107534;1256;97730;-57
2023/01/16 06:08:32;;;;;;;40.90;22.30;;;;;;;1.67;81.27;100712.33;107588;1253;112185;-61
2023/01/16 06:11:01;;;;;;;40.30;20.80;;;;;;;1.65;81.67;100707.14;107672;1254;109873;-60
2023/01/16 06:13:29;;;;;;;39.40;21.60;;;;;;;1.69;82.10;100709.75;107611;1252;108286;-59
2023/01/16 06:15:57;;;;;;;44.30;21.20;;;;;;;1.79;82.56;100708.17;107509;1256;97819;-61
2023/01/16 06:18:25;;;;;;;49.60;25.20;;;;;;;1.89;82.57;100709.41;107634;1253;97730;-59
2023/01/16 06:20:54;;;;;;;42.80;22.10;;;;;;;1.98;82.57;100705.41;107655;1253;110668;-58
2023/01/16 06:23:22;;;;;;;38.90;20.80;;;;;;;2.04;82.45;100706.15;107549;1254;109252;-58
2023/01/16 06:25:51;;;;;;;41.70;22.40;;;;;;;2.07;82.30;100704.59;107603;1254;108304;-59
2023/01/16 06:28:19;;;;;;;41.30;22.40;;;;;;;2.11;82.13;100697.98;107556;1254;97914;-60
2023/01/16 06:30:52;;;;;;;41.10;21.60;;;;;;;2.12;82.06;100699.14;107683;1253;98364;-59
2023/01/16 06:33:20;;;;;;;41.00;20.90;;;;;;;2.12;81.78;100694.04;107586;1253;112217;-59
2023/01/16 06:35:48;;;;;;;41.80;21.30;;;;;;;2.12;81.60;100686.95;107591;1253;109243;-59
2023/01/16 06:38:17;;;;;;;49.40;24.40;;;;;;;2.12;81.24;100696.01;107604;1254;108113;-59
2023/01/16 06:40:45;;;;;;;49.10;25.40;;;;;;;2.08;81.03;100699.03;107686;1254;97822;-60
2023/01/16 06:43:16;;;;;;;46.20;23.70;;;;;;;2.05;80.71;100705.40;107691;1254;97835;-59
2023/01/16 06:45:45;;;;;;;49.70;24.40;;;;;;;2.00;80.61;100709.00;107663;1254;111818;-59
2023/01/16 06:48:13;;;;;;;47.00;24.10;;;;;;;1.97;80.68;100704.73;107681;1253;110837;-60
2023/01/16 06:50:42;;;;;;;80.10;33.00;;;;;;;1.98;80.40;100698.33;107622;1256;108197;-61
2023/01/16 06:53:10;;;;;;;68.50;31.40;;;;;;;1.98;80.34;100695.34;107609;1254;97835;-59
2023/01/16 06:55:40;;;;;;;88.80;36.10;;;;;;;1.98;80.34;100695.86;107681;1254;98488;-59
2023/01/16 06:58:09;;;;;;;128.60;43.30;;;;;;;2.00;80.56;100695.57;107646;1254;112492;-59
2023/01/16 07:00:38;;;;;;;93.30;37.00;;;;;;;2.08;80.66;100698.71;107565;1254;109946;-62
2023/01/16 07:03:06;;;;;;;88.80;37.60;;;;;;;2.15;80.62;100699.36;107622;1255;108303;-63
2023/01/16 07:05:35;;;;;;;78.40;33.90;;;;;;;2.20;80.77;100700.33;107574;1254;97916;-58
2023/01/16 07:08:03;;;;;;;55.20;26.80;;;;;;;2.23;80.60;100703.20;107570;1252;97720;-59
2023/01/16 07:10:32;;;;;;;47.10;23.10;;;;;;;2.23;80.30;100702.85;107623;1253;112157;-60
2023/01/16 07:13:01;;;;;;;37.80;20.80;;;;;;;2.23;80.06;100700.02;107610;1253;109835;-59
2023/01/16 07:24:03;;;;;;;52.00;25.40;;;;;;;2.32;81.06;100701.62;107511;1253;111393;-59
2023/01/16 07:26:36;;;;;;;39.30;21.50;;;;;;;2.43;81.16;100699.08;107681;1254;109698;-59
2023/01/16 07:29:05;;;;;;;43.00;23.10;;;;;;;2.53;81.23;100696.23;107604;1253;107941;-60
2023/01/16 07:31:35;;;;;;;37.60;18.70;;;;;;;2.66;81.65;100687.90;107606;1253;97797;-59
2023/01/16 07:34:03;;;;;;;31.70;17.10;;;;;;;2.79;81.43;100682.55;107702;1256;98447;-59
2023/01/16 07:36:32;;;;;;;30.30;16.90;;;;;;;2.92;81.58;100684.25;107569;1253;111259;-58
2023/01/16 07:39:00;;;;;;;34.60;18.90;;;;;;;3.02;81.29;100694.14;107591;1254;109677;-59
2023/01/16 07:41:28;;;;;;;30.80;18.20;;;;;;;3.10;81.32;100691.36;107564;1252;107672;-61
2023/01/16 07:43:57;;;;;;;31.10;17.70;;;;;;;3.24;81.60;100687.90;107596;1253;97822;-59
2023/01/16 07:46:25;;;;;;;27.30;15.90;;;;;;;3.37;81.46;100691.38;107532;1256;98361;-60
2023/01/16 07:48:55;;;;;;;26.50;16.10;;;;;;;3.45;81.28;100691.81;107564;1253;111246;-60
2023/01/16 07:51:24;;;;;;;33.80;15.30;;;;;;;3.52;80.83;100688.55;107573;1253;109706;-60
2023/01/16 07:53:53;;;;;;;27.70;16.00;;;;;;;3.57;80.57;100692.16;107622;1253;108848;-59
2023/01/16 07:56:21;;;;;;;26.50;15.50;;;;;;;3.62;80.23;100694.36;107587;1254;97937;-60
2023/01/16 07:58:54;;;;;;;27.10;16.70;;;;;;;3.65;79.90;100690.79;107544;1253;98446;-59
2023/01/16 08:01:22;;;;;;;27.50;15.20;;;;;;;3.70;79.81;100686.79;107575;1253;112973;-59
2023/01/16 08:03:51;;;;;;;27.60;16.60;;;;;;;3.74;79.66;100687.21;107583;1254;109618;-59
2023/01/16 08:06:20;;;;;;;28.10;17.30;;;;;;;3.81;79.57;100692.30;107529;1253;108485;-61
2023/01/16 08:08:48;;;;;;;28.70;17.60;;;;;;;3.87;79.15;100693.16;107524;1254;97857;-61
2023/01/16 08:11:35;;;;;;;39.90;22.90;;;;;;;3.96;79.24;100686.23;107508;1254;98477;-59
2023/01/16 08:14:05;;;;;;;31.20;17.80;;;;;;;4.08;79.50;100685.83;107566;1254;111699;-59
2023/01/16 08:16:34;;;;;;;29.50;17.00;;;;;;;4.20;79.15;100682.25;107580;1256;110208;-60
2023/01/16 08:19:03;;;;;;;29.70;17.30;;;;;;;4.30;79.13;100681.13;107619;1254;109519;-61
2023/01/16 08:21:31;;;;;;;33.40;18.70;;;;;;;4.40;78.72;100680.66;107597;1254;97843;-59
2023/01/16 08:24:00;;;;;;;30.40;18.10;;;;;;;4.44;77.76;100679.30;107629;1252;97778;-60
2023/01/16 08:26:29;;;;;;;29.80;17.30;;;;;;;4.45;76.98;100674.66;107598;1252;111942;-58
2023/01/16 08:28:59;;;;;;;30.30;17.10;;;;;;;4.49;77.17;100674.70;107610;1254;110210;-60
2023/01/16 08:31:28;;;;;;;34.90;18.70;;;;;;;4.55;77.23;100667.04;107600;1254;108757;-60
2023/01/16 08:33:56;;;;;;;33.80;18.10;;;;;;;4.62;76.99;100669.99;107581;1254;97845;-59
2023/01/16 08:36:25;;;;;;;36.30;20.70;;;;;;;4.71;77.11;100664.93;107564;1254;97860;-60
2023/01/16 08:38:53;;;;;;;33.10;18.40;;;;;;;4.87;77.02;100656.65;107608;1254;111762;-59
2023/01/16 08:52:38;;;;;;;29.30;17.10;;;;;;;5.44;75.21;100643.76;107623;1256;111687;-59
2023/01/16 08:55:07;;;;;;;31.70;19.50;;;;;;;5.52;75.20;100639.27;107595;1254;109107;-60
2023/01/16 08:57:35;;;;;;;32.40;19.20;;;;;;;5.60;74.61;100635.48;107549;1253;108993;-59
2023/01/16 09:00:06;;;;;;;32.20;19.00;;;;;;;5.72;74.62;100632.58;107585;1254;97948;-59
2023/01/16 09:02:36;;;;;;;36.90;19.70;;;;;;;5.83;73.92;100629.31;107645;1253;97899;-59
2023/01/16 09:05:05;;;;;;;33.50;18.90;;;;;;;5.82;73.05;100626.85;107650;1254;112181;-59
2023/01/16 09:07:33;;;;;;;31.50;17.80;;;;;;;5.73;72.80;100626.79;107690;1253;111370;-59
2023/01/16 09:10:02;;;;;;;33.20;19.40;;;;;;;5.70;72.45;100629.84;107642;1252;108725;-59
2023/01/16 09:15:17;;;;;;;33.00;18.70;;;;;;;5.71;73.08;100621.21;107475;1254;98382;-60
2023/01/16 09:17:46;;;;;;;30.90;18.40;;;;;;;5.76;72.80;100623.16;107561;1254;112133;-61
2023/01/16 09:20:15;;;;;;;37.40;18.10;;;;;;;5.81;72.79;100617.65;107589;1254;109137;-60
2023/01/16 09:22:43;;;;;;;34.00;20.20;;;;;;;5.88;72.58;100610.06;107518;1253;108303;-61
2023/01/16 09:25:12;;;;;;;37.90;18.80;;;;;;;5.95;72.49;100612.42;107543;1254;97822;-61
2023/01/16 09:27:46;;;;;;;35.00;19.80;;;;;;;6.01;72.45;100612.39;107621;1253;97846;-65
2023/01/16 09:30:15;;;;;;;32.90;19.20;;;;;;;6.05;72.21;100609.39;107643;1254;111310;-59
2023/01/16 09:32:45;;;;;;;32.40;18.80;;;;;;;6.07;70.59;100601.77;107583;1256;110052;-59
2023/01/16 09:35:15;;;;;;;33.60;19.70;;;;;;;6.03;70.65;100587.30;107590;1253;108794;-59
2023/01/16 09:37:45;;;;;;;29.50;19.10;;;;;;;6.00;70.39;100581.64;107537;1253;97935;-60
2023/01/16 09:40:17;;;;;;;35.80;19.30;;;;;;;5.98;70.62;100588.36;107606;1254;97919;-60
2023/01/16 09:45:48;;;;;;;36.00;19.70;;;;;;;6.01;71.17;100577.15;107606;1254;110089;-61
2023/01/16 09:48:31;;;;;;;38.50;18.90;;;;;;;6.04;71.45;100573.55;107589;1254;106488;-59
2023/01/16 09:51:14;;;;;;;45.20;21.50;;;;;;;6.07;71.31;100566.92;107560;1254;98688;-59
2023/01/16 09:59:39;;;;;;;52.20;23.60;;;;;;;6.15;69.98;100551.17;107581;1254;110323;-59
2023/01/16 10:02:31;;;;;;;38.40;20.70;;;;;;;6.17;67.98;100544.77;107549;1252;107675;-59
2023/01/16 10:05:05;;;;;;;81.50;23.20;;;;;;;6.16;67.89;100540.30;107570;1254;98024;-60
2023/01/16 10:08:01;;;;;;;41.00;20.00;;;;;;;6.17;67.26;100539.31;107587;1253;98383;-59
2023/01/16 10:10:35;;;;;;;37.30;19.10;;;;;;;6.15;66.96;100539.61;107622;1252;112790;-59
2023/01/16 10:13:21;;;;;;;34.30;19.80;;;;;;;6.13;67.23;100531.42;107592;1253;109774;-59
2023/01/16 10:15:59;;;;;;;36.50;20.30;;;;;;;6.15;67.51;100531.77;107611;1254;108182;-60
2023/01/16 10:18:54;;;;;;;34.20;19.30;;;;;;;6.15;67.13;100533.94;107598;1256;97959;-60
2023/01/16 10:21:22;;;;;;;33.60;19.70;;;;;;;6.15;66.95;100530.69;107601;1254;97828;-60
2023/01/16 10:24:01;;;;;;;55.00;26.70;;;;;;;6.19;67.45;100524.71;107576;1256;112371;-59
2023/01/16 10:26:35;;;;;;;29.80;18.30;;;;;;;6.23;66.30;100516.42;107608;1253;108849;-59
2023/01/16 10:29:22;;;;;;;33.10;18.60;;;;;;;6.23;66.09;100506.61;107567;1256;108361;-63
2023/01/16 10:31:58;;;;;;;30.10;18.10;;;;;;;6.23;65.83;100501.09;107610;1252;97925;-60
2023/01/16 10:34:43;;;;;;;31.20;18.60;;;;;;;6.21;65.69;100500.52;107548;1253;97772;-59
2023/01/16 10:37:12;;;;;;;35.20;18.90;;;;;;;6.18;66.03;100493.14;107474;1253;111803;-59
2023/01/16 10:39:42;;;;;;;33.90;18.20;;;;;;;6.17;65.78;100488.74;107475;1252;109079;-59
2023/01/16 10:50:41;;;;;;;33.60;17.60;;;;;;;6.04;66.00;100479.85;107636;1255;112485;-60
2023/01/16 10:53:11;;;;;;;33.10;16.40;;;;;;;6.04;66.18;100480.79;107656;1254;110167;-61
2023/01/16 10:55:44;;;;;;;31.50;17.00;;;;;;;6.03;66.15;100476.02;107559;1253;108315;-61
2023/01/16 10:58:27;;;;;;;26.50;16.10;;;;;;;6.06;66.23;100473.54;107514;1253;97868;-61
2023/01/16 11:01:01;;;;;;;35.40;18.00;;;;;;;6.08;66.21;100466.24;107440;1253;97913;-59
2023/01/16 11:03:55;;;;;;;28.30;15.90;;;;;;;6.10;66.65;100464.67;107466;1254;112279;-59
2023/01/16 11:06:26;;;;;;;29.00;14.50;;;;;;;6.15;66.45;100461.41;107509;1252;109281;-59
2023/01/16 11:09:15;;;;;;;25.80;14.20;;;;;;;6.24;66.67;100452.23;107552;1253;108197;-61
2023/01/16 11:20:29;;;;;;;29.90;14.60;;;;;;;6.71;65.91;100428.35;107437;1253;109973;-59
2023/01/16 11:23:14;;;;;;;30.20;16.70;;;;;;;6.76;65.73;100419.25;107471;1254;109342;-59
2023/01/16 11:25:45;;;;;;;27.90;16.30;;;;;;;6.81;65.93;100418.16;107543;1252;97813;-59
2023/01/16 11:28:21;;;;;;;27.30;15.30;;;;;;;6.85;65.72;100414.95;107614;1253;97734;-59
2023/01/16 11:30:55;;;;;;;28.70;17.80;;;;;;;6.88;65.20;100413.86;107632;1254;111877;-59
2023/01/16 11:33:25;;;;;;;;;;;;;;;6.89;65.27;100411.09;107587;1253;109474;-60
2023/01/16 11:35:59;;;;;;;27.80;16.60;;;;;;;6.88;65.68;100400.59;107466;1254;107212;-60
2023/01/16 11:38:32;;;;;;;29.40;17.20;;;;;;;6.93;65.27;100398.11;107499;1254;98128;-59
2023/01/16 11:41:03;;;;;;;29.50;18.20;;;;;;;6.94;65.70;100393.56;107523;1256;98515;-59
2023/01/16 11:46:28;;;;;;;29.60;17.80;;;;;;;7.01;66.17;100381.96;107574;1252;110895;-60
2023/01/16 11:49:14;;;;;;;29.60;18.30;;;;;;;7.01;66.55;100377.84;107542;1253;108483;-58
2023/01/16 11:51:42;;;;;;;40.40;20.80;;;;;;;6.97;66.96;100375.70;107541;1254;97839;-59
2023/01/16 11:54:23;;;;;;;36.40;21.70;;;;;;;6.97;67.42;100371.05;107582;1253;97722;-58
2023/01/16 11:57:15;;;;;;;33.10;20.10;;;;;;;7.01;67.75;100362.70;107628;1253;111474;-60
2023/01/16 12:00:03;;;;;;;33.80;21.30;;;;;;;7.04;67.93;100355.13;107606;1253;110140;-61
2023/01/16 12:03:02;;;;;;;29.80;19.00;;;;;;;7.07;68.33;100346.35;107444;1255;108543;-60
2023/01/16 12:05:53;;;;;;;31.10;18.00;;;;;;;7.02;68.19;100324.79;107420;1252;97983;-60
2023/01/16 12:08:37;;;;;;;30.70;18.00;;;;;;;6.93;68.37;100311.31;107597;1255;97844;-60
2023/01/16 12:11:08;;;;;;;32.50;17.90;;;;;;;6.91;68.74;100310.42;107580;1253;112252;-60
2023/01/16 12:17:08;;;;;;;21.20;14.90;;;;;;;7.04;69.20;100308.64;107495;1253;108586;-59
2023/01/16 12:20:08;;;;;;;27.90;15.90;;;;;;;7.16;69.23;100306.96;107351;1253;97818;-60
2023/01/16 12:23:05;;;;;;;24.00;15.30;;;;;;;7.28;68.90;100303.28;107537;1253;97966;-60
2023/01/16 12:25:33;;;;;;;25.20;15.10;;;;;;;7.37;67.51;100303.05;107545;1253;112188;-60
2023/01/16 12:28:19;;;;;;;22.20;14.80;;;;;;;7.43;67.61;100303.70;107486;1253;109782;-60
2023/01/16 12:33:54;;;;;;;26.70;14.20;;;;;;;7.60;68.15;100302.47;107379;1253;97861;-60